sensor_id;sensor_type;location;lat;lon;timestamp;pressure;altitude;pressure_sealevel;temperature;humidity
45350;BME280;31086;51.702;-1.106;2022-07-30T00:02:05;101117.11;;;20.99;48.64
45350;BME280;31086;51.702;-1.106;2022-07-30T00:04:33;101115.52;;;20.72;49.32
45350;BME280;31086;51.702;-1.106;2022-07-30T00:07:00;101117.41;;;21.83;48.00
45350;BME280;31086;51.702;-1.106;2022-07-30T00:09:27;101121.71;;;21.61;47.60
45350;BME280;31086;51.702;-1.106;2022-07-30T00:11:55;101123.05;;;22.35;46.76
45350;BME280;31086;51.702;-1.106;2022-07-30T00:14:22;101118.84;;;22.07;47.03
45350;BME280;31086;51.702;-1.106;2022-07-30T00:16:49;101116.39;;;21.97;47.25
45350;BME280;31086;51.702;-1.106;2022-07-30T00:19:16;101112.08;;;21.97;47.22
45350;BME280;31086;51.702;-1.106;2022-07-30T00:21:43;101109.49;;;21.52;47.83
45350;BME280;31086;51.702;-1.106;2022-07-30T00:24:11;101107.36;;;21.33;48.01
45350;BME280;31086;51.702;-1.106;2022-07-30T00:26:39;101107.63;;;22.03;47.22
45350;BME280;31086;51.702;-1.106;2022-07-30T00:29:06;101103.52;;;22.20;47.03
45350;BME280;31086;51.702;-1.106;2022-07-30T00:31:33;101107.31;;;22.12;47.14
45350;BME280;31086;51.702;-1.106;2022-07-30T00:34:01;101104.26;;;22.07;46.93
45350;BME280;31086;51.702;-1.106;2022-07-30T00:36:28;101108.55;;;21.79;47.25
45350;BME280;31086;51.702;-1.106;2022-07-30T00:38:55;101107.23;;;21.23;47.66
45350;BME280;31086;51.702;-1.106;2022-07-30T00:41:23;101106.41;;;21.73;47.39
45350;BME280;31086;51.702;-1.106;2022-07-30T00:43:50;101098.79;;;22.04;47.05
45350;BME280;31086;51.702;-1.106;2022-07-30T00:46:17;101101.98;;;21.97;47.10
45350;BME280;31086;51.702;-1.106;2022-07-30T00:48:45;101100.43;;;22.07;47.21
45350;BME280;31086;51.702;-1.106;2022-07-30T00:51:12;101097.91;;;21.62;47.83
45350;BME280;31086;51.702;-1.106;2022-07-30T00:53:39;101102.84;;;21.46;48.05
45350;BME280;31086;51.702;-1.106;2022-07-30T00:56:07;101107.66;;;21.00;49.05
45350;BME280;31086;51.702;-1.106;2022-07-30T00:58:35;101104.34;;;20.84;49.35
45350;BME280;31086;51.702;-1.106;2022-07-30T01:01:02;101108.48;;;20.43;50.28
45350;BME280;31086;51.702;-1.106;2022-07-30T01:03:29;101104.72;;;21.26;49.22
45350;BME280;31086;51.702;-1.106;2022-07-30T01:05:57;101107.61;;;21.19;49.13
45350;BME280;31086;51.702;-1.106;2022-07-30T01:08:24;101110.31;;;21.51;48.76
45350;BME280;31086;51.702;-1.106;2022-07-30T01:10:51;101111.80;;;21.77;48.05
45350;BME280;31086;51.702;-1.106;2022-07-30T01:13:18;101111.55;;;21.86;47.95
45350;BME280;31086;51.702;-1.106;2022-07-30T01:15:45;101110.29;;;21.74;48.00
45350;BME280;31086;51.702;-1.106;2022-07-30T01:18:13;101107.17;;;21.76;47.72
45350;BME280;31086;51.702;-1.106;2022-07-30T01:20:57;101104.18;;;21.62;47.90
45350;BME280;31086;51.702;-1.106;2022-07-30T01:23:30;101102.02;;;22.16;47.55
45350;BME280;31086;51.702;-1.106;2022-07-30T01:26:03;101101.74;;;21.78;47.99
45350;BME280;31086;51.702;-1.106;2022-07-30T01:28:35;101102.68;;;21.78;48.01
45350;BME280;31086;51.702;-1.106;2022-07-30T01:31:05;101106.03;;;21.86;48.24
45350;BME280;31086;51.702;-1.106;2022-07-30T01:33:36;101103.43;;;21.87;47.96
45350;BME280;31086;51.702;-1.106;2022-07-30T01:36:06;101102.00;;;21.60;48.25
45350;BME280;31086;51.702;-1.106;2022-07-30T01:38:36;101100.74;;;22.19;47.82
45350;BME280;31086;51.702;-1.106;2022-07-30T01:41:05;101099.33;;;21.41;48.42
45350;BME280;31086;51.702;-1.106;2022-07-30T01:43:34;101094.43;;;21.37;48.83
45350;BME280;31086;51.702;-1.106;2022-07-30T01:46:03;101092.34;;;21.25;48.80
45350;BME280;31086;51.702;-1.106;2022-07-30T01:48:34;101096.53;;;21.28;49.20
45350;BME280;31086;51.702;-1.106;2022-07-30T01:51:04;101099.34;;;21.22;48.98
45350;BME280;31086;51.702;-1.106;2022-07-30T01:53:35;101098.17;;;20.59;49.89
45350;BME280;31086;51.702;-1.106;2022-07-30T01:56:03;101106.59;;;20.25;50.30
45350;BME280;31086;51.702;-1.106;2022-07-30T01:58:34;101109.37;;;20.61;50.18
45350;BME280;31086;51.702;-1.106;2022-07-30T02:01:02;101109.52;;;20.07;51.00
45350;BME280;31086;51.702;-1.106;2022-07-30T02:03:30;101109.42;;;20.42;50.47
45350;BME280;31086;51.702;-1.106;2022-07-30T02:05:59;101105.14;;;20.81;49.99
45350;BME280;31086;51.702;-1.106;2022-07-30T02:08:34;101106.76;;;20.35;50.68
45350;BME280;31086;51.702;-1.106;2022-07-30T02:11:06;101106.50;;;20.41;50.60
45350;BME280;31086;51.702;-1.106;2022-07-30T02:13:41;101108.39;;;19.98;50.98
45350;BME280;31086;51.702;-1.106;2022-07-30T02:16:15;101107.96;;;20.15;51.03
45350;BME280;31086;51.702;-1.106;2022-07-30T02:18:49;101103.85;;;19.65;51.75
45350;BME280;31086;51.702;-1.106;2022-07-30T02:21:19;101103.55;;;20.67;50.43
45350;BME280;31086;51.702;-1.106;2022-07-30T02:23:48;101107.92;;;19.13;52.46
45350;BME280;31086;51.702;-1.106;2022-07-30T02:26:20;101107.45;;;19.84;52.03
45350;BME280;31086;51.702;-1.106;2022-07-30T02:28:52;101109.51;;;20.01;51.48
45350;BME280;31086;51.702;-1.106;2022-07-30T02:31:23;101108.09;;;20.73;50.81
45350;BME280;31086;51.702;-1.106;2022-07-30T02:33:56;101112.49;;;20.61;50.56
45350;BME280;31086;51.702;-1.106;2022-07-30T02:36:24;101112.97;;;20.53;50.67
45350;BME280;31086;51.702;-1.106;2022-07-30T02:38:53;101108.84;;;20.52;50.79
45350;BME280;31086;51.702;-1.106;2022-07-30T02:41:24;101115.75;;;19.89;51.57
45350;BME280;31086;51.702;-1.106;2022-07-30T02:43:53;101113.68;;;19.94;52.18
45350;BME280;31086;51.702;-1.106;2022-07-30T02:46:23;101103.81;;;20.56;51.08
45350;BME280;31086;51.702;-1.106;2022-07-30T02:48:52;101094.81;;;20.01;51.52
45350;BME280;31086;51.702;-1.106;2022-07-30T02:51:21;101092.89;;;20.44;51.36
45350;BME280;31086;51.702;-1.106;2022-07-30T02:53:51;101098.81;;;20.49;51.53
45350;BME280;31086;51.702;-1.106;2022-07-30T02:56:20;101102.06;;;19.89;52.41
45350;BME280;31086;51.702;-1.106;2022-07-30T02:58:49;101109.38;;;18.88;53.96
45350;BME280;31086;51.702;-1.106;2022-07-30T03:01:20;101106.89;;;18.12;55.52
45350;BME280;31086;51.702;-1.106;2022-07-30T03:03:50;101103.97;;;18.73;54.68
45350;BME280;31086;51.702;-1.106;2022-07-30T03:06:18;101102.89;;;18.73;55.13
45350;BME280;31086;51.702;-1.106;2022-07-30T03:08:47;101102.59;;;19.46;53.62
45350;BME280;31086;51.702;-1.106;2022-07-30T03:11:15;101098.92;;;19.40;53.51
45350;BME280;31086;51.702;-1.106;2022-07-30T03:13:45;101095.93;;;18.92;54.13
45350;BME280;31086;51.702;-1.106;2022-07-30T03:16:14;101095.78;;;19.28;53.33
45350;BME280;31086;51.702;-1.106;2022-07-30T03:18:43;101094.58;;;19.41;52.72
45350;BME280;31086;51.702;-1.106;2022-07-30T03:21:12;101094.69;;;19.55;53.24
45350;BME280;31086;51.702;-1.106;2022-07-30T03:23:41;101091.64;;;19.64;53.11
45350;BME280;31086;51.702;-1.106;2022-07-30T03:26:10;101092.99;;;19.34;53.65
45350;BME280;31086;51.702;-1.106;2022-07-30T03:28:40;101096.58;;;19.63;53.25
45350;BME280;31086;51.702;-1.106;2022-07-30T03:31:09;101093.90;;;19.78;52.69
45350;BME280;31086;51.702;-1.106;2022-07-30T03:33:37;101093.99;;;19.21;53.12
45350;BME280;31086;51.702;-1.106;2022-07-30T03:36:07;101099.24;;;19.46;52.75
45350;BME280;31086;51.702;-1.106;2022-07-30T03:38:36;101103.64;;;18.99;53.41
45350;BME280;31086;51.702;-1.106;2022-07-30T03:41:07;101096.94;;;19.52;52.68
45350;BME280;31086;51.702;-1.106;2022-07-30T03:43:34;101093.48;;;19.51;52.69
45350;BME280;31086;51.702;-1.106;2022-07-30T03:46:04;101087.39;;;19.56;53.25
45350;BME280;31086;51.702;-1.106;2022-07-30T03:48:34;101081.53;;;19.94;52.71
45350;BME280;31086;51.702;-1.106;2022-07-30T03:51:02;101081.01;;;19.67;53.14
45350;BME280;31086;51.702;-1.106;2022-07-30T03:53:33;101082.35;;;19.28;53.32
45350;BME280;31086;51.702;-1.106;2022-07-30T03:56:01;101083.32;;;19.42;53.14
45350;BME280;31086;51.702;-1.106;2022-07-30T03:58:30;101086.38;;;19.13;53.49
45350;BME280;31086;51.702;-1.106;2022-07-30T04:00:57;101084.10;;;19.53;52.87
45350;BME280;31086;51.702;-1.106;2022-07-30T04:03:24;101085.25;;;20.06;52.42
45350;BME280;31086;51.702;-1.106;2022-07-30T04:05:52;101085.71;;;19.53;52.81
45350;BME280;31086;51.702;-1.106;2022-07-30T04:08:20;101086.10;;;20.03;52.51
45350;BME280;31086;51.702;-1.106;2022-07-30T04:10:47;101091.29;;;19.34;52.85
45350;BME280;31086;51.702;-1.106;2022-07-30T04:13:15;101094.87;;;19.29;53.57
45350;BME280;31086;51.702;-1.106;2022-07-30T04:15:47;101093.56;;;19.39;53.52
45350;BME280;31086;51.702;-1.106;2022-07-30T04:18:16;101089.74;;;19.36;53.54
45350;BME280;31086;51.702;-1.106;2022-07-30T04:20:46;101082.26;;;18.59;54.42
45350;BME280;31086;51.702;-1.106;2022-07-30T04:23:15;101078.54;;;19.36;53.60
45350;BME280;31086;51.702;-1.106;2022-07-30T04:25:42;101087.40;;;19.01;54.47
45350;BME280;31086;51.702;-1.106;2022-07-30T04:28:11;101088.97;;;18.86;54.42
45350;BME280;31086;51.702;-1.106;2022-07-30T04:30:39;101098.06;;;18.85;54.78
45350;BME280;31086;51.702;-1.106;2022-07-30T04:33:07;101095.78;;;18.62;54.78
45350;BME280;31086;51.702;-1.106;2022-07-30T04:35:35;101095.38;;;17.95;55.78
45350;BME280;31086;51.702;-1.106;2022-07-30T04:38:03;101094.73;;;18.27;55.68
45350;BME280;31086;51.702;-1.106;2022-07-30T04:40:30;101097.55;;;18.28;56.06
45350;BME280;31086;51.702;-1.106;2022-07-30T04:42:57;101103.41;;;17.48;56.82
45350;BME280;31086;51.702;-1.106;2022-07-30T04:45:25;101109.83;;;18.38;55.40
45350;BME280;31086;51.702;-1.106;2022-07-30T04:47:52;101109.92;;;17.33;57.49
45350;BME280;31086;51.702;-1.106;2022-07-30T04:50:21;101108.05;;;17.99;56.00
45350;BME280;31086;51.702;-1.106;2022-07-30T04:52:50;101110.11;;;18.12;56.13
45350;BME280;31086;51.702;-1.106;2022-07-30T04:55:19;101108.19;;;18.71;55.20
45350;BME280;31086;51.702;-1.106;2022-07-30T04:57:48;101109.60;;;18.85;54.66
45350;BME280;31086;51.702;-1.106;2022-07-30T05:00:17;101103.06;;;18.66;54.55
45350;BME280;31086;51.702;-1.106;2022-07-30T05:02:45;101100.68;;;17.86;55.50
45350;BME280;31086;51.702;-1.106;2022-07-30T05:05:14;101103.22;;;18.59;55.08
45350;BME280;31086;51.702;-1.106;2022-07-30T05:07:43;101100.67;;;18.88;55.07
45350;BME280;31086;51.702;-1.106;2022-07-30T05:10:12;101101.38;;;18.75;54.89
45350;BME280;31086;51.702;-1.106;2022-07-30T05:12:39;101098.62;;;18.24;55.26
45350;BME280;31086;51.702;-1.106;2022-07-30T05:15:08;101097.84;;;18.81;55.18
45350;BME280;31086;51.702;-1.106;2022-07-30T05:17:36;101093.30;;;18.93;54.58
45350;BME280;31086;51.702;-1.106;2022-07-30T05:20:05;101093.76;;;18.62;54.73
45350;BME280;31086;51.702;-1.106;2022-07-30T05:22:33;101096.54;;;18.73;54.54
45350;BME280;31086;51.702;-1.106;2022-07-30T05:25:01;101098.73;;;18.67;54.52
45350;BME280;31086;51.702;-1.106;2022-07-30T05:27:28;101099.82;;;18.04;56.21
45350;BME280;31086;51.702;-1.106;2022-07-30T05:29:55;101102.39;;;18.05;56.41
45350;BME280;31086;51.702;-1.106;2022-07-30T05:32:22;101102.95;;;18.07;56.28
45350;BME280;31086;51.702;-1.106;2022-07-30T05:34:49;101102.11;;;18.50;55.69
45350;BME280;31086;51.702;-1.106;2022-07-30T05:37:17;101105.84;;;18.76;54.85
45350;BME280;31086;51.702;-1.106;2022-07-30T05:39:44;101112.66;;;18.60;54.96
45350;BME280;31086;51.702;-1.106;2022-07-30T05:42:11;101114.17;;;17.82;56.11
45350;BME280;31086;51.702;-1.106;2022-07-30T05:44:39;101108.12;;;17.46;56.75
45350;BME280;31086;51.702;-1.106;2022-07-30T05:47:06;101109.38;;;17.79;56.48
45350;BME280;31086;51.702;-1.106;2022-07-30T05:49:33;101103.32;;;17.14;58.03
45350;BME280;31086;51.702;-1.106;2022-07-30T05:52:00;101103.73;;;17.88;56.63
45350;BME280;31086;51.702;-1.106;2022-07-30T05:54:27;101106.24;;;18.15;56.21
45350;BME280;31086;51.702;-1.106;2022-07-30T05:56:55;101104.35;;;17.72;56.94
45350;BME280;31086;51.702;-1.106;2022-07-30T05:59:22;101101.73;;;17.15;57.67
45350;BME280;31086;51.702;-1.106;2022-07-30T06:01:49;101101.65;;;17.63;57.27
45350;BME280;31086;51.702;-1.106;2022-07-30T06:04:17;101105.87;;;17.22;58.31
45350;BME280;31086;51.702;-1.106;2022-07-30T06:06:44;101101.40;;;16.91;58.75
45350;BME280;31086;51.702;-1.106;2022-07-30T06:09:12;101097.11;;;17.70;57.05
45350;BME280;31086;51.702;-1.106;2022-07-30T06:11:39;101098.48;;;18.20;56.18
45350;BME280;31086;51.702;-1.106;2022-07-30T06:14:06;101098.28;;;18.77;55.25
45350;BME280;31086;51.702;-1.106;2022-07-30T06:16:33;101103.04;;;18.53;55.75
45350;BME280;31086;51.702;-1.106;2022-07-30T06:19:01;101103.32;;;18.66;55.03
45350;BME280;31086;51.702;-1.106;2022-07-30T06:21:29;101105.32;;;18.53;55.17
45350;BME280;31086;51.702;-1.106;2022-07-30T06:23:56;101098.85;;;17.58;57.00
45350;BME280;31086;51.702;-1.106;2022-07-30T06:26:23;101088.62;;;18.67;55.07
45350;BME280;31086;51.702;-1.106;2022-07-30T06:28:50;101086.49;;;18.39;55.67
45350;BME280;31086;51.702;-1.106;2022-07-30T06:31:18;101085.24;;;18.55;55.36
45350;BME280;31086;51.702;-1.106;2022-07-30T06:33:45;101095.48;;;18.41;55.58
45350;BME280;31086;51.702;-1.106;2022-07-30T06:36:12;101097.28;;;17.74;56.95
45350;BME280;31086;51.702;-1.106;2022-07-30T06:38:40;101101.85;;;18.35;55.84
45350;BME280;31086;51.702;-1.106;2022-07-30T06:41:07;101099.23;;;18.52;55.14
45350;BME280;31086;51.702;-1.106;2022-07-30T06:43:35;101098.61;;;18.68;54.85
45350;BME280;31086;51.702;-1.106;2022-07-30T06:46:02;101101.17;;;18.71;55.75
45350;BME280;31086;51.702;-1.106;2022-07-30T06:48:30;101098.48;;;17.55;57.53
45350;BME280;31086;51.702;-1.106;2022-07-30T06:50:57;101085.79;;;17.32;57.94
45350;BME280;31086;51.702;-1.106;2022-07-30T06:53:24;101087.19;;;18.46;56.30
45350;BME280;31086;51.702;-1.106;2022-07-30T06:55:52;101096.39;;;18.94;54.94
45350;BME280;31086;51.702;-1.106;2022-07-30T06:58:20;101097.88;;;18.39;56.85
45350;BME280;31086;51.702;-1.106;2022-07-30T07:00:47;101099.91;;;18.00;57.38
45350;BME280;31086;51.702;-1.106;2022-07-30T07:03:14;101099.68;;;18.49;56.81
45350;BME280;31086;51.702;-1.106;2022-07-30T07:05:41;101110.23;;;18.19;57.36
45350;BME280;31086;51.702;-1.106;2022-07-30T07:08:08;101114.45;;;18.47;57.05
45350;BME280;31086;51.702;-1.106;2022-07-30T07:10:36;101113.19;;;17.56;59.05
45350;BME280;31086;51.702;-1.106;2022-07-30T07:13:03;101108.05;;;18.12;58.71
45350;BME280;31086;51.702;-1.106;2022-07-30T07:15:30;101108.40;;;17.67;59.69
45350;BME280;31086;51.702;-1.106;2022-07-30T07:17:58;101108.63;;;18.91;57.24
45350;BME280;31086;51.702;-1.106;2022-07-30T07:20:25;101117.37;;;19.24;56.72
45350;BME280;31086;51.702;-1.106;2022-07-30T07:22:52;101114.85;;;19.10;56.61
45350;BME280;31086;51.702;-1.106;2022-07-30T07:25:19;101110.14;;;19.55;55.98
45350;BME280;31086;51.702;-1.106;2022-07-30T07:27:47;101108.61;;;19.92;55.32
45350;BME280;31086;51.702;-1.106;2022-07-30T07:30:14;101118.66;;;19.26;56.96
45350;BME280;31086;51.702;-1.106;2022-07-30T07:32:41;101121.15;;;19.33;56.72
45350;BME280;31086;51.702;-1.106;2022-07-30T07:35:08;101127.22;;;19.07;57.43
45350;BME280;31086;51.702;-1.106;2022-07-30T07:37:36;101123.98;;;19.54;57.17
45350;BME280;31086;51.702;-1.106;2022-07-30T07:40:04;101128.77;;;19.70;57.03
45350;BME280;31086;51.702;-1.106;2022-07-30T07:42:32;101137.51;;;19.52;57.41
45350;BME280;31086;51.702;-1.106;2022-07-30T07:45:00;101137.87;;;19.72;56.95
45350;BME280;31086;51.702;-1.106;2022-07-30T07:47:27;101144.12;;;19.68;57.11
45350;BME280;31086;51.702;-1.106;2022-07-30T07:49:55;101149.73;;;18.87;58.74
45350;BME280;31086;51.702;-1.106;2022-07-30T07:52:22;101149.37;;;19.55;58.08
45350;BME280;31086;51.702;-1.106;2022-07-30T07:54:49;101149.52;;;19.63;57.81
45350;BME280;31086;51.702;-1.106;2022-07-30T07:57:16;101145.10;;;19.69;58.07
45350;BME280;31086;51.702;-1.106;2022-07-30T07:59:44;101144.10;;;19.43;58.71
45350;BME280;31086;51.702;-1.106;2022-07-30T08:02:11;101141.32;;;18.15;61.63
45350;BME280;31086;51.702;-1.106;2022-07-30T08:04:38;101139.37;;;17.59;63.30
45350;BME280;31086;51.702;-1.106;2022-07-30T08:07:05;101135.89;;;18.75;60.57
45350;BME280;31086;51.702;-1.106;2022-07-30T08:09:33;101137.01;;;19.32;59.52
45350;BME280;31086;51.702;-1.106;2022-07-30T08:11:59;101138.16;;;19.84;58.68
45350;BME280;31086;51.702;-1.106;2022-07-30T08:14:27;101142.41;;;19.73;59.15
45350;BME280;31086;51.702;-1.106;2022-07-30T08:16:54;101139.13;;;19.96;58.34
45350;BME280;31086;51.702;-1.106;2022-07-30T08:19:23;101137.62;;;20.04;58.34
45350;BME280;31086;51.702;-1.106;2022-07-30T08:21:50;101135.39;;;19.66;59.28
45350;BME280;31086;51.702;-1.106;2022-07-30T08:24:17;101136.87;;;18.40;61.06
45350;BME280;31086;51.702;-1.106;2022-07-30T08:26:44;101129.30;;;19.22;59.88
45350;BME280;31086;51.702;-1.106;2022-07-30T08:29:11;101123.46;;;20.03;59.31
45350;BME280;31086;51.702;-1.106;2022-07-30T08:31:39;101120.87;;;19.42;59.30
45350;BME280;31086;51.702;-1.106;2022-07-30T08:34:06;101105.90;;;20.39;58.51
45350;BME280;31086;51.702;-1.106;2022-07-30T08:36:34;101112.38;;;19.82;59.10
45350;BME280;31086;51.702;-1.106;2022-07-30T08:39:01;101112.65;;;20.63;58.09
45350;BME280;31086;51.702;-1.106;2022-07-30T08:41:28;101110.48;;;20.54;56.92
45350;BME280;31086;51.702;-1.106;2022-07-30T08:43:59;101109.11;;;20.70;56.64
45350;BME280;31086;51.702;-1.106;2022-07-30T08:46:29;101103.03;;;21.29;55.56
45350;BME280;31086;51.702;-1.106;2022-07-30T08:48:58;101101.91;;;21.57;54.62
45350;BME280;31086;51.702;-1.106;2022-07-30T08:51:25;101109.19;;;20.71;56.57
45350;BME280;31086;51.702;-1.106;2022-07-30T08:53:53;101109.04;;;20.16;58.58
45350;BME280;31086;51.702;-1.106;2022-07-30T08:56:20;101113.92;;;19.01;60.04
45350;BME280;31086;51.702;-1.106;2022-07-30T08:58:47;101110.67;;;20.08;58.36
45350;BME280;31086;51.702;-1.106;2022-07-30T09:01:15;101110.27;;;20.29;57.85
45350;BME280;31086;51.702;-1.106;2022-07-30T09:03:42;101120.09;;;19.84;58.80
45350;BME280;31086;51.702;-1.106;2022-07-30T09:06:10;101127.65;;;19.69;59.25
45350;BME280;31086;51.702;-1.106;2022-07-30T09:08:37;101126.03;;;19.44;59.06
45350;BME280;31086;51.702;-1.106;2022-07-30T09:11:04;101128.86;;;19.99;59.07
45350;BME280;31086;51.702;-1.106;2022-07-30T09:13:33;101123.28;;;20.15;58.55
45350;BME280;31086;51.702;-1.106;2022-07-30T09:16:00;101126.18;;;20.46;58.30
45350;BME280;31086;51.702;-1.106;2022-07-30T09:18:30;101123.90;;;20.77;57.45
45350;BME280;31086;51.702;-1.106;2022-07-30T09:20:59;101126.19;;;20.05;58.91
45350;BME280;31086;51.702;-1.106;2022-07-30T09:23:26;101122.72;;;19.94;59.20
45350;BME280;31086;51.702;-1.106;2022-07-30T09:25:53;101126.30;;;20.66;58.14
45350;BME280;31086;51.702;-1.106;2022-07-30T09:28:27;101124.26;;;20.88;57.29
45350;BME280;31086;51.702;-1.106;2022-07-30T09:30:56;101125.17;;;20.84;57.25
45350;BME280;31086;51.702;-1.106;2022-07-30T09:33:33;101128.14;;;20.57;57.40
45350;BME280;31086;51.702;-1.106;2022-07-30T09:36:03;101123.47;;;21.21;56.43
45350;BME280;31086;51.702;-1.106;2022-07-30T09:38:42;101123.99;;;20.86;56.90
45350;BME280;31086;51.702;-1.106;2022-07-30T09:41:10;101134.73;;;20.70;57.43
45350;BME280;31086;51.702;-1.106;2022-07-30T09:43:44;101141.39;;;20.61;57.54
45350;BME280;31086;51.702;-1.106;2022-07-30T09:46:13;101139.54;;;20.24;58.17
45350;BME280;31086;51.702;-1.106;2022-07-30T09:48:40;101137.07;;;20.63;57.74
45350;BME280;31086;51.702;-1.106;2022-07-30T09:51:07;101134.40;;;20.21;57.66
45350;BME280;31086;51.702;-1.106;2022-07-30T09:53:35;101137.71;;;20.37;57.05
45350;BME280;31086;51.702;-1.106;2022-07-30T09:56:23;101134.54;;;19.98;58.42
45350;BME280;31086;51.702;-1.106;2022-07-30T09:58:50;101138.27;;;19.99;57.81
45350;BME280;31086;51.702;-1.106;2022-07-30T10:01:18;101147.87;;;19.85;58.08
45350;BME280;31086;51.702;-1.106;2022-07-30T10:03:45;101153.33;;;19.09;60.48
45350;BME280;31086;51.702;-1.106;2022-07-30T10:06:12;101157.51;;;19.35;60.23
45350;BME280;31086;51.702;-1.106;2022-07-30T10:08:41;101149.32;;;19.11;60.63
45350;BME280;31086;51.702;-1.106;2022-07-30T10:11:11;101154.62;;;18.80;61.39
45350;BME280;31086;51.702;-1.106;2022-07-30T10:13:39;101143.48;;;20.03;58.64
45350;BME280;31086;51.702;-1.106;2022-07-30T10:16:07;101155.32;;;19.36;59.55
45350;BME280;31086;51.702;-1.106;2022-07-30T10:18:35;101148.03;;;20.17;58.00
45350;BME280;31086;51.702;-1.106;2022-07-30T10:21:03;101150.31;;;19.85;58.59
45350;BME280;31086;51.702;-1.106;2022-07-30T10:23:31;101152.31;;;20.46;56.73
45350;BME280;31086;51.702;-1.106;2022-07-30T10:25:59;101146.02;;;20.57;56.65
45350;BME280;31086;51.702;-1.106;2022-07-30T10:28:28;101147.67;;;20.74;55.78
45350;BME280;31086;51.702;-1.106;2022-07-30T10:30:56;101153.70;;;19.98;57.25
45350;BME280;31086;51.702;-1.106;2022-07-30T10:33:27;101147.35;;;20.45;56.86
45350;BME280;31086;51.702;-1.106;2022-07-30T10:35:56;101159.84;;;19.20;58.87
45350;BME280;31086;51.702;-1.106;2022-07-30T10:38:28;101154.91;;;19.91;57.74
45350;BME280;31086;51.702;-1.106;2022-07-30T10:41:01;101145.58;;;20.48;57.00
45350;BME280;31086;51.702;-1.106;2022-07-30T10:43:44;101145.23;;;20.39;58.06
45350;BME280;31086;51.702;-1.106;2022-07-30T10:46:25;101137.13;;;19.60;59.22
45350;BME280;31086;51.702;-1.106;2022-07-30T10:49:07;101136.45;;;19.52;59.57
45350;BME280;31086;51.702;-1.106;2022-07-30T10:51:44;101126.19;;;20.90;56.47
45350;BME280;31086;51.702;-1.106;2022-07-30T10:54:45;101123.39;;;19.18;59.40
45350;BME280;31086;51.702;-1.106;2022-07-30T10:57:14;101128.49;;;20.62;56.64
45350;BME280;31086;51.702;-1.106;2022-07-30T11:00:15;101128.02;;;20.83;56.86
45350;BME280;31086;51.702;-1.106;2022-07-30T11:03:11;101131.04;;;20.63;56.55
45350;BME280;31086;51.702;-1.106;2022-07-30T11:05:39;101136.00;;;19.52;59.20
45350;BME280;31086;51.702;-1.106;2022-07-30T11:08:39;101140.80;;;19.21;59.76
45350;BME280;31086;51.702;-1.106;2022-07-30T11:11:42;101138.75;;;19.89;58.19
45350;BME280;31086;51.702;-1.106;2022-07-30T11:14:10;101149.20;;;19.18;59.61
45350;BME280;31086;51.702;-1.106;2022-07-30T11:17:10;101141.59;;;18.88;59.81
45350;BME280;31086;51.702;-1.106;2022-07-30T11:20:08;101136.76;;;20.42;57.63
45350;BME280;31086;51.702;-1.106;2022-07-30T11:22:37;101138.44;;;19.32;57.93
45350;BME280;31086;51.702;-1.106;2022-07-30T11:25:06;101132.82;;;20.79;55.56
45350;BME280;31086;51.702;-1.106;2022-07-30T11:27:36;101122.38;;;21.15;55.10
45350;BME280;31086;51.702;-1.106;2022-07-30T11:30:05;101126.17;;;20.31;56.70
45350;BME280;31086;51.702;-1.106;2022-07-30T11:33:20;101127.11;;;20.00;57.78
45350;BME280;31086;51.702;-1.106;2022-07-30T11:36:05;101122.84;;;20.22;57.23
45350;BME280;31086;51.702;-1.106;2022-07-30T11:39:05;101120.50;;;21.21;55.49
45350;BME280;31086;51.702;-1.106;2022-07-30T11:41:33;101118.10;;;21.38;54.77
45350;BME280;31086;51.702;-1.106;2022-07-30T11:44:34;101123.86;;;20.99;56.12
45350;BME280;31086;51.702;-1.106;2022-07-30T11:47:02;101125.92;;;20.87;56.44
45350;BME280;31086;51.702;-1.106;2022-07-30T11:49:34;101128.17;;;20.96;55.75
45350;BME280;31086;51.702;-1.106;2022-07-30T11:52:01;101128.35;;;21.39;54.87
45350;BME280;31086;51.702;-1.106;2022-07-30T11:54:29;101122.86;;;21.81;54.21
45350;BME280;31086;51.702;-1.106;2022-07-30T11:56:56;101123.17;;;22.12;54.46
45350;BME280;31086;51.702;-1.106;2022-07-30T11:59:23;101124.07;;;21.79;55.22
45350;BME280;31086;51.702;-1.106;2022-07-30T12:01:51;101119.97;;;22.19;54.67
45350;BME280;31086;51.702;-1.106;2022-07-30T12:04:19;101115.42;;;22.33;54.47
45350;BME280;31086;51.702;-1.106;2022-07-30T12:06:47;101108.84;;;22.74;53.31
45350;BME280;31086;51.702;-1.106;2022-07-30T12:09:21;101112.34;;;22.94;52.95
45350;BME280;31086;51.702;-1.106;2022-07-30T12:11:48;101112.23;;;22.98;53.25
45350;BME280;31086;51.702;-1.106;2022-07-30T12:14:15;101106.04;;;23.52;51.92
45350;BME280;31086;51.702;-1.106;2022-07-30T12:16:49;101103.71;;;21.94;55.08
45350;BME280;31086;51.702;-1.106;2022-07-30T12:19:17;101103.46;;;21.61;55.75
45350;BME280;31086;51.702;-1.106;2022-07-30T12:21:44;101105.53;;;22.68;54.40
45350;BME280;31086;51.702;-1.106;2022-07-30T12:24:12;101106.54;;;22.27;55.76
45350;BME280;31086;51.702;-1.106;2022-07-30T12:26:39;101098.13;;;22.22;55.11
45350;BME280;31086;51.702;-1.106;2022-07-30T12:29:08;101084.33;;;22.58;54.75
45350;BME280;31086;51.702;-1.106;2022-07-30T12:31:36;101081.01;;;23.17;53.63
45350;BME280;31086;51.702;-1.106;2022-07-30T12:34:04;101088.97;;;22.74;54.07
45350;BME280;31086;51.702;-1.106;2022-07-30T12:36:32;101083.68;;;23.18;53.39
45350;BME280;31086;51.702;-1.106;2022-07-30T12:39:02;101077.57;;;22.07;55.17
45350;BME280;31086;51.702;-1.106;2022-07-30T12:41:47;101078.29;;;23.16;53.90
45350;BME280;31086;51.702;-1.106;2022-07-30T12:44:47;101074.97;;;22.78;54.86
45350;BME280;31086;51.702;-1.106;2022-07-30T12:47:19;101069.99;;;23.00;53.89
45350;BME280;31086;51.702;-1.106;2022-07-30T12:49:47;101070.88;;;22.74;54.23
45350;BME280;31086;51.702;-1.106;2022-07-30T12:52:20;101073.17;;;22.86;53.97
45350;BME280;31086;51.702;-1.106;2022-07-30T12:54:56;101077.63;;;22.25;55.50